Time;durP1;ratioP1;P1;durP2;ratioP2;P2;SDS_P1;SDS_P2;PMS_P1;PMS_P2;Temp;Humidity;BMP_temperature;BMP_pressure;BME280_temperature;BME280_humidity;BME280_pressure;Samples;Min_cycle;Max_cycle;Signal;HPM_P1;HPM_P2
2023/12/17 00:00:15;;;;;;;;;;;;;;;;;;5048798;28;19967;-76
2023/12/17 00:02:41;;;;;;;;;;;;;;;;;;5049815;28;19963;-76
2023/12/17 00:05:07;;;;;;;;;;;;;;;;;;5047988;28;20324;-76
2023/12/17 00:07:33;;;;;;;;;;;;;;;;;;5048544;28;20383;-76
2023/12/17 00:09:59;;;;;;;;;;;;;;;;;;5047935;28;20063;-76
2023/12/17 00:12:24;;;;;;;;;;;;;;;;;;5049530;28;20013;-76
2023/12/17 00:14:50;;;;;;;;;;;;;;;;;;5047144;28;19982;-76
2023/12/17 00:17:17;;;;;;;;;;;;;;;;;;5049542;28;20187;-76
2023/12/17 00:19:43;;;;;;;;;;;;;;;;;;5050287;28;19920;-72
2023/12/17 00:22:08;;;;;;;;;;;;;;;;;;5050233;28;20447;-73
2023/12/17 00:24:34;;;;;;;;;;;;;;;;;;5045672;28;20391;-73
2023/12/17 00:27:00;;;;;;;;;;;;;;;;;;5049892;28;20355;-75
2023/12/17 00:29:26;;;;;;;;;;;;;;;;;;5048370;28;19960;-74
2023/12/17 00:31:52;;;;;;;;;;;;;;;;;;5047626;28;19962;-73
2023/12/17 00:34:18;;;;;;;;;;;;;;;;;;5048941;28;19945;-75
2023/12/17 00:36:44;;;;;;;;;;;;;;;;;;5049086;28;19960;-74
2023/12/17 00:39:10;;;;;;;;;;;;;;;;;;5049271;28;20005;-72
2023/12/17 00:41:36;;;;;;;;;;;;;;;;;;5049114;28;19967;-72
2023/12/17 00:44:02;;;;;;;;;;;;;;;;;;5048318;28;20384;-74
2023/12/17 00:46:28;;;;;;;;;;;;;;;;;;5048408;28;20337;-72
2023/12/17 00:48:54;;;;;;;;;;;;;;;;;;5047579;28;19975;-74
2023/12/17 00:51:20;;;;;;;;;;;;;;;;;;5049232;28;19972;-73
2023/12/17 00:53:46;;;;;;;;;;;;;;;;;;5049609;28;20074;-73
2023/12/17 00:56:12;;;;;;;;;;;;;;;;;;5049659;28;19952;-73
2023/12/17 00:58:38;;;;;;;;;;;;;;;;;;5048547;28;20264;-73
2023/12/17 01:01:04;;;;;;;;;;;;;;;;;;5048198;28;19958;-73
2023/12/17 01:03:30;;;;;;;;;;;;;;;;;;5048978;28;20017;-73
2023/12/17 01:05:56;;;;;;;;;;;;;;;;;;5049741;28;20003;-73
2023/12/17 01:08:22;;;;;;;;;;;;;;;;;;5049777;28;20578;-72
2023/12/17 01:10:48;;;;;;;;;;;;;;;;;;5046054;28;19962;-73
2023/12/17 01:13:14;;;;;;;;;;;;;;;;;;5048892;28;19982;-74
2023/12/17 01:15:39;;;;;;;;;;;;;;;;;;5047982;28;19952;-73
2023/12/17 01:18:05;;;;;;;;;;;;;;;;;;5048640;28;19959;-75
2023/12/17 01:20:31;;;;;;;;;;;;;;;;;;5048721;28;19944;-73
2023/12/17 01:22:57;;;;;;;;;;;;;;;;;;5044277;28;20299;-73
2023/12/17 01:25:23;;;;;;;;;;;;;;;;;;5044793;28;20276;-73
2023/12/17 01:27:49;;;;;;;;;;;;;;;;;;5049124;28;19964;-74
2023/12/17 01:30:15;;;;;;;;;;;;;;;;;;5043221;28;19951;-77
2023/12/17 01:32:41;;;;;;;;;;;;;;;;;;5048204;28;19979;-78
2023/12/17 01:35:08;;;;;;;;;;;;;;;;;;5044671;28;19963;-77
2023/12/17 01:37:34;;;;;;;;;;;;;;;;;;5048502;28;20396;-78
2023/12/17 01:40:00;;;;;;;;;;;;;;;;;;5047745;28;19999;-78
2023/12/17 01:42:26;;;;;;;;;;;;;;;;;;5047972;28;19975;-78
2023/12/17 01:44:52;;;;;;;;;;;;;;;;;;5044892;28;19964;-77
2023/12/17 01:47:18;;;;;;;;;;;;;;;;;;5048305;28;20392;-77
2023/12/17 01:49:43;;;;;;;;;;;;;;;;;;5043464;28;19960;-78
2023/12/17 01:52:09;;;;;;;;;;;;;;;;;;5048888;28;19956;-78
2023/12/17 01:54:36;;;;;;;;;;;;;;;;;;5047034;28;19986;-78
2023/12/17 01:57:02;;;;;;;;;;;;;;;;;;5048133;28;20256;-78
2023/12/17 01:59:27;;;;;;;;;;;;;;;;;;5046029;28;19917;-78
2023/12/17 02:01:53;;;;;;;;;;;;;;;;;;5047828;28;19960;-78
2023/12/17 02:04:19;;;;;;;;;;;;;;;;;;5048468;28;19968;-78
2023/12/17 02:06:45;;;;;;;;;;;;;;;;;;5048645;28;20280;-78
2023/12/17 02:09:11;;;;;;;;;;;;;;;;;;5042652;28;19983;-78
2023/12/17 02:11:37;;;;;;;;;;;;;;;;;;5048183;28;19976;-77
2023/12/17 02:14:03;;;;;;;;;;;;;;;;;;5046791;28;20359;-78
2023/12/17 02:16:29;;;;;;;;;;;;;;;;;;5047708;28;19971;-78
2023/12/17 02:18:55;;;;;;;;;;;;;;;;;;5047023;28;19968;-78
2023/12/17 02:21:21;;;;;;;;;;;;;;;;;;5047578;28;19964;-77
2023/12/17 02:23:47;;;;;;;;;;;;;;;;;;5045200;28;19952;-78
2023/12/17 02:26:13;;;;;;;;;;;;;;;;;;5048139;28;19970;-78
2023/12/17 02:28:39;;;;;;;;;;;;;;;;;;5045699;28;20050;-77
2023/12/17 02:31:04;;;;;;;;;;;;;;;;;;5043811;28;19944;-78
2023/12/17 02:33:30;;;;;;;;;;;;;;;;;;5054528;28;20317;-78
2023/12/17 02:35:56;;;;;;;;;;;;;;;;;;5047367;28;19944;-78
2023/12/17 02:38:22;;;;;;;;;;;;;;;;;;5046628;28;19948;-75
2023/12/17 02:40:48;;;;;;;;;;;;;;;;;;5046319;28;20249;-76
2023/12/17 02:43:14;;;;;;;;;;;;;;;;;;5046840;28;19979;-76
2023/12/17 02:45:40;;;;;;;;;;;;;;;;;;5045108;28;19982;-76
2023/12/17 02:48:06;;;;;;;;;;;;;;;;;;5047812;28;20391;-76
2023/12/17 02:50:32;;;;;;;;;;;;;;;;;;5046607;28;19921;-77
2023/12/17 02:52:58;;;;;;;;;;;;;;;;;;5047993;28;20383;-76
2023/12/17 02:55:24;;;;;;;;;;;;;;;;;;5047408;28;19952;-76
2023/12/17 02:57:50;;;;;;;;;;;;;;;;;;5047703;28;19994;-77
2023/12/17 03:00:16;;;;;;;;;;;;;;;;;;5046922;28;20032;-79
2023/12/17 03:02:42;;;;;;;;;;;;;;;;;;5049086;28;20437;-79
2023/12/17 03:05:08;;;;;;;;;;;;;;;;;;5046379;28;20329;-78
2023/12/17 03:07:34;;;;;;;;;;;;;;;;;;5052005;28;19924;-78
2023/12/17 03:10:00;;;;;;;;;;;;;;;;;;5051601;28;19947;-78
2023/12/17 03:12:25;;;;;;;;;;;;;;;;;;5050375;28;19967;-77
2023/12/17 03:14:51;;;;;;;;;;;;;;;;;;5050063;28;20478;-77
2023/12/17 03:17:17;;;;;;;;;;;;;;;;;;5052486;28;19948;-78
2023/12/17 03:19:43;;;;;;;;;;;;;;;;;;5044544;28;19952;-78
2023/12/17 03:22:09;;;;;;;;;;;;;;;;;;5050395;28;19971;-78
2023/12/17 03:24:35;;;;;;;;;;;;;;;;;;5045119;28;19967;-78
2023/12/17 03:27:01;;;;;;;;;;;;;;;;;;5051165;28;19947;-77
2023/12/17 03:29:27;;;;;;;;;;;;;;;;;;5049906;28;20026;-78
2023/12/17 03:31:53;;;;;;;;;;;;;;;;;;5051334;28;20319;-78
2023/12/17 03:34:19;;;;;;;;;;;;;;;;;;5050547;28;19964;-78
2023/12/17 03:36:45;;;;;;;;;;;;;;;;;;5051870;28;19964;-78
2023/12/17 03:39:12;;;;;;;;;;;;;;;;;;5050458;28;19952;-78
2023/12/17 03:41:38;;;;;;;;;;;;;;;;;;5050276;28;19928;-78
2023/12/17 03:44:04;;;;;;;;;;;;;;;;;;5050845;28;20031;-78
2023/12/17 03:46:30;;;;;;;;;;;;;;;;;;5051500;28;19913;-78
2023/12/17 03:48:56;;;;;;;;;;;;;;;;;;5049624;28;20391;-78
2023/12/17 03:51:22;;;;;;;;;;;;;;;;;;5062240;28;19920;-75
2023/12/17 03:53:48;;;;;;;;;;;;;;;;;;5073274;28;19908;-75
2023/12/17 03:56:14;;;;;;;;;;;;;;;;;;5073437;28;19908;-75
2023/12/17 03:58:40;;;;;;;;;;;;;;;;;;5060749;28;19917;-74
2023/12/17 04:01:05;;;;;;;;;;;;;;;;;;5051952;28;19913;-74
2023/12/17 04:03:31;;;;;;;;;;;;;;;;;;5053478;28;19935;-75
2023/12/17 04:05:57;;;;;;;;;;;;;;;;;;5052559;28;19954;-74
2023/12/17 04:08:23;;;;;;;;;;;;;;;;;;5052243;28;19923;-74
2023/12/17 04:10:49;;;;;;;;;;;;;;;;;;5052306;28;19951;-74
2023/12/17 04:13:15;;;;;;;;;;;;;;;;;;5053072;28;20000;-74
2023/12/17 04:15:41;;;;;;;;;;;;;;;;;;5051203;28;20247;-75
2023/12/17 04:18:07;;;;;;;;;;;;;;;;;;5051482;28;20288;-75
2023/12/17 04:20:36;;;;;;;;;;;;;;;;;;5051829;28;19944;-74
2023/12/17 04:23:02;;;;;;;;;;;;;;;;;;5051855;28;20364;-74
2023/12/17 04:25:28;;;;;;;;;;;;;;;;;;5052119;28;20009;-74
2023/12/17 04:27:53;;;;;;;;;;;;;;;;;;5052109;28;20010;-75
2023/12/17 04:30:19;;;;;;;;;;;;;;;;;;5051077;28;19940;-74
2023/12/17 04:32:45;;;;;;;;;;;;;;;;;;5060918;28;19951;-74
2023/12/17 04:35:11;;;;;;;;;;;;;;;;;;5051906;28;19952;-74
2023/12/17 04:37:37;;;;;;;;;;;;;;;;;;5052058;28;19945;-75
2023/12/17 04:40:03;;;;;;;;;;;;;;;;;;5052641;28;20340;-74
2023/12/17 04:42:29;;;;;;;;;;;;;;;;;;5051927;28;19971;-75
2023/12/17 04:44:55;;;;;;;;;;;;;;;;;;5049834;28;19952;-75
2023/12/17 04:47:21;;;;;;;;;;;;;;;;;;5051602;28;20179;-75
2023/12/17 04:49:47;;;;;;;;;;;;;;;;;;5051349;28;20051;-74
2023/12/17 04:52:13;;;;;;;;;;;;;;;;;;5042394;28;20150;-75
2023/12/17 04:54:39;;;;;;;;;;;;;;;;;;5050993;28;19948;-75
2023/12/17 04:57:05;;;;;;;;;;;;;;;;;;5049717;28;19948;-75
2023/12/17 04:59:31;;;;;;;;;;;;;;;;;;5050307;28;19921;-75
2023/12/17 05:01:57;;;;;;;;;;;;;;;;;;5048672;28;20393;-78
2023/12/17 05:04:23;;;;;;;;;;;;;;;;;;5048971;28;19952;-77
2023/12/17 05:06:49;;;;;;;;;;;;;;;;;;5049412;28;19952;-77
2023/12/17 05:09:15;;;;;;;;;;;;;;;;;;5048813;28;19963;-77
2023/12/17 05:11:41;;;;;;;;;;;;;;;;;;5049543;28;20256;-78
2023/12/17 05:14:06;;;;;;;;;;;;;;;;;;5048188;28;19917;-78
2023/12/17 05:16:32;;;;;;;;;;;;;;;;;;5048166;28;20390;-78
2023/12/17 05:18:58;;;;;;;;;;;;;;;;;;5048178;28;20394;-78
2023/12/17 05:21:24;;;;;;;;;;;;;;;;;;5049075;28;20046;-78
2023/12/17 05:23:50;;;;;;;;;;;;;;;;;;5042633;28;20470;-78
2023/12/17 05:26:16;;;;;;;;;;;;;;;;;;5048555;28;20322;-77
2023/12/17 05:28:42;;;;;;;;;;;;;;;;;;5046400;28;19927;-78
2023/12/17 05:31:08;;;;;;;;;;;;;;;;;;5048481;28;19956;-78
2023/12/17 05:33:34;;;;;;;;;;;;;;;;;;5047202;28;19967;-78
2023/12/17 05:36:00;;;;;;;;;;;;;;;;;;5044328;28;19963;-78
2023/12/17 05:38:29;;;;;;;;;;;;;;;;;;5046293;28;19940;-78
2023/12/17 05:40:55;;;;;;;;;;;;;;;;;;5048558;28;19913;-78
2023/12/17 05:43:21;;;;;;;;;;;;;;;;;;5047957;28;19952;-78
2023/12/17 05:45:47;;;;;;;;;;;;;;;;;;5047081;28;20077;-78
2023/12/17 05:48:14;;;;;;;;;;;;;;;;;;5048281;28;19952;-78
2023/12/17 05:50:40;;;;;;;;;;;;;;;;;;5047564;28;19924;-77
2023/12/17 05:53:06;;;;;;;;;;;;;;;;;;5047536;28;19956;-78
2023/12/17 05:55:32;;;;;;;;;;;;;;;;;;5048189;28;20360;-78
2023/12/17 05:57:58;;;;;;;;;;;;;;;;;;5047888;28;19944;-77
2023/12/17 06:00:24;;;;;;;;;;;;;;;;;;5041332;28;19979;-78
2023/12/17 06:02:50;;;;;;;;;;;;;;;;;;5047166;28;19952;-78
2023/12/17 06:05:16;;;;;;;;;;;;;;;;;;5046852;28;19913;-77
2023/12/17 06:07:42;;;;;;;;;;;;;;;;;;5047789;28;20392;-78
2023/12/17 06:10:08;;;;;;;;;;;;;;;;;;5048198;28;19994;-78
2023/12/17 06:12:34;;;;;;;;;;;;;;;;;;5046778;28;20008;-78
2023/12/17 06:15:00;;;;;;;;;;;;;;;;;;5046039;28;19964;-78
2023/12/17 06:17:26;;;;;;;;;;;;;;;;;;5045984;28;19959;-78
2023/12/17 06:19:52;;;;;;;;;;;;;;;;;;5046563;28;19972;-78
2023/12/17 06:22:18;;;;;;;;;;;;;;;;;;5048427;28;19964;-78
2023/12/17 06:24:44;;;;;;;;;;;;;;;;;;5046599;28;19913;-79
2023/12/17 06:27:10;;;;;;;;;;;;;;;;;;5047401;28;19920;-79
2023/12/17 06:29:36;;;;;;;;;;;;;;;;;;5046655;28;19979;-79
2023/12/17 06:32:04;;;;;;;;;;;;;;;;;;5048696;28;19967;-79
2023/12/17 06:34:30;;;;;;;;;;;;;;;;;;5045304;28;20408;-79
2023/12/17 06:36:56;;;;;;;;;;;;;;;;;;5048184;28;20007;-79
2023/12/17 06:39:22;;;;;;;;;;;;;;;;;;5046917;28;19968;-78
2023/12/17 06:41:48;;;;;;;;;;;;;;;;;;5046589;28;19952;-78
2023/12/17 06:44:14;;;;;;;;;;;;;;;;;;5043027;28;19912;-78
2023/12/17 06:46:39;;;;;;;;;;;;;;;;;;5046571;28;19973;-77
2023/12/17 06:49:05;;;;;;;;;;;;;;;;;;5045761;28;19960;-78
2023/12/17 06:51:31;;;;;;;;;;;;;;;;;;5046858;28;19952;-78
2023/12/17 06:53:57;;;;;;;;;;;;;;;;;;5046798;28;19982;-78
2023/12/17 06:56:23;;;;;;;;;;;;;;;;;;5047284;28;20366;-78
2023/12/17 06:58:49;;;;;;;;;;;;;;;;;;5045014;28;20779;-77
2023/12/17 07:01:15;;;;;;;;;;;;;;;;;;5046409;28;20391;-78
2023/12/17 07:03:41;;;;;;;;;;;;;;;;;;5046292;28;19942;-77
2023/12/17 07:06:11;;;;;;;;;;;;;;;;;;5047526;28;20310;-78
2023/12/17 07:08:37;;;;;;;;;;;;;;;;;;5046730;28;19967;-78
2023/12/17 07:11:03;;;;;;;;;;;;;;;;;;5047573;28;19912;-77
2023/12/17 07:13:29;;;;;;;;;;;;;;;;;;5046350;28;20407;-77
2023/12/17 07:15:55;;;;;;;;;;;;;;;;;;5046482;28;20055;-78
2023/12/17 07:18:20;;;;;;;;;;;;;;;;;;5046295;28;19968;-78
2023/12/17 07:20:47;;;;;;;;;;;;;;;;;;5047616;28;20206;-73
2023/12/17 07:23:13;;;;;;;;;;;;;;;;;;5046866;28;19913;-74
2023/12/17 07:25:39;;;;;;;;;;;;;;;;;;5046765;28;20055;-73
2023/12/17 07:28:05;;;;;;;;;;;;;;;;;;5044609;28;19975;-72
2023/12/17 07:30:32;;;;;;;;;;;;;;;;;;5045863;28;19952;-73
2023/12/17 07:32:58;;;;;;;;;;;;;;;;;;5045094;28;20309;-73
2023/12/17 07:35:24;;;;;;;;;;;;;;;;;;5046162;28;20123;-73
2023/12/17 07:37:50;;;;;;;;;;;;;;;;;;5047011;28;19940;-73
2023/12/17 07:40:16;;;;;;;;;;;;;;;;;;5046474;28;20021;-75
2023/12/17 07:42:42;;;;;;;;;;;;;;;;;;5046482;28;20010;-73
2023/12/17 07:45:08;;;;;;;;;;;;;;;;;;5042203;28;20023;-73
2023/12/17 07:47:34;;;;;;;;;;;;;;;;;;5045022;28;20340;-72
2023/12/17 07:50:00;;;;;;;;;;;;;;;;;;5045207;28;20322;-76
2023/12/17 07:52:26;;;;;;;;;;;;;;;;;;5046565;28;19951;-78
2023/12/17 07:54:55;;;;;;;;;;;;;;;;;;5050354;28;19978;-77
2023/12/17 07:57:21;;;;;;;;;;;;;;;;;;5050394;28;20262;-78
2023/12/17 07:59:51;;;;;;;;;;;;;;;;;;5047059;28;19948;-78
2023/12/17 08:02:17;;;;;;;;;;;;;;;;;;5046853;28;19927;-78
2023/12/17 08:04:43;;;;;;;;;;;;;;;;;;5048778;28;20011;-78
2023/12/17 08:07:10;;;;;;;;;;;;;;;;;;5050116;28;20041;-77
2023/12/17 08:09:35;;;;;;;;;;;;;;;;;;5049563;28;19925;-77
2023/12/17 08:12:02;;;;;;;;;;;;;;;;;;5049608;28;20375;-79
2023/12/17 08:14:28;;;;;;;;;;;;;;;;;;5048491;28;19913;-78
2023/12/17 08:16:54;;;;;;;;;;;;;;;;;;5049387;28;20019;-78
2023/12/17 08:19:20;;;;;;;;;;;;;;;;;;5048738;28;20019;-78
2023/12/17 08:21:46;;;;;;;;;;;;;;;;;;5049881;28;19952;-77
2023/12/17 08:24:12;;;;;;;;;;;;;;;;;;5046254;28;20396;-78
2023/12/17 08:26:38;;;;;;;;;;;;;;;;;;5049386;28;19963;-78
2023/12/17 08:29:04;;;;;;;;;;;;;;;;;;5047976;28;20376;-78
2023/12/17 08:31:30;;;;;;;;;;;;;;;;;;5050723;28;20355;-75
2023/12/17 08:33:55;;;;;;;;;;;;;;;;;;5050925;28;19971;-75
2023/12/17 08:36:22;;;;;;;;;;;;;;;;;;5051770;28;20338;-75
2023/12/17 08:38:48;;;;;;;;;;;;;;;;;;5051754;28;20012;-75
2023/12/17 08:41:14;;;;;;;;;;;;;;;;;;5049155;28;20026;-74
2023/12/17 08:43:40;;;;;;;;;;;;;;;;;;5049196;28;20434;-74
2023/12/17 08:46:06;;;;;;;;;;;;;;;;;;5050099;28;19920;-74
2023/12/17 08:48:32;;;;;;;;;;;;;;;;;;5050825;28;19940;-75
2023/12/17 08:50:58;;;;;;;;;;;;;;;;;;5050310;28;19935;-75
2023/12/17 08:53:26;;;;;;;;;;;;;;;;;;5051650;28;19960;-75
2023/12/17 08:55:52;;;;;;;;;;;;;;;;;;5051795;28;19967;-74
2023/12/17 08:58:18;;;;;;;;;;;;;;;;;;5051616;28;19964;-74
2023/12/17 09:00:44;;;;;;;;;;;;;;;;;;5050947;28;20445;-75
2023/12/17 09:03:10;;;;;;;;;;;;;;;;;;5050482;28;19999;-75
2023/12/17 09:05:36;;;;;;;;;;;;;;;;;;5050975;28;20390;-74
2023/12/17 09:08:02;;;;;;;;;;;;;;;;;;5051664;28;20123;-75
2023/12/17 09:10:27;;;;;;;;;;;;;;;;;;5048820;28;20528;-75
2023/12/17 09:12:54;;;;;;;;;;;;;;;;;;5049528;28;19956;-74
2023/12/17 09:15:20;;;;;;;;;;;;;;;;;;5048784;28;19993;-75
2023/12/17 09:17:46;;;;;;;;;;;;;;;;;;5047071;28;20754;-75
2023/12/17 09:20:13;;;;;;;;;;;;;;;;;;5049799;28;20491;-77
2023/12/17 09:22:40;;;;;;;;;;;;;;;;;;5047633;28;20344;-75
2023/12/17 09:25:06;;;;;;;;;;;;;;;;;;5049248;28;20351;-78
2023/12/17 09:27:32;;;;;;;;;;;;;;;;;;5048280;28;20087;-75
2023/12/17 09:29:58;;;;;;;;;;;;;;;;;;5047218;28;20030;-74
2023/12/17 09:32:24;;;;;;;;;;;;;;;;;;5047508;28;19959;-76
2023/12/17 09:34:49;;;;;;;;;;;;;;;;;;5049593;28;19955;-75
2023/12/17 09:37:15;;;;;;;;;;;;;;;;;;5050767;28;20333;-76
2023/12/17 09:39:41;;;;;;;;;;;;;;;;;;5051978;28;19917;-76
2023/12/17 09:42:07;;;;;;;;;;;;;;;;;;5048478;28;19991;-78
2023/12/17 09:44:34;;;;;;;;;;;;;;;;;;5046802;28;20055;-78
2023/12/17 09:47:00;;;;;;;;;;;;;;;;;;5048120;28;19912;-79
2023/12/17 09:49:26;;;;;;;;;;;;;;;;;;5047343;28;20051;-78
2023/12/17 09:51:52;;;;;;;;;;;;;;;;;;5047508;28;20016;-79
2023/12/17 09:54:18;;;;;;;;;;;;;;;;;;5047743;28;20121;-77
2023/12/17 09:56:44;;;;;;;;;;;;;;;;;;5047083;28;19982;-78
2023/12/17 09:59:10;;;;;;;;;;;;;;;;;;5047850;28;20020;-78
2023/12/17 10:01:36;;;;;;;;;;;;;;;;;;5048584;28;19999;-78
2023/12/17 10:04:01;;;;;;;;;;;;;;;;;;5042005;28;20018;-78
2023/12/17 10:06:27;;;;;;;;;;;;;;;;;;5047679;28;19951;-78
2023/12/17 10:08:53;;;;;;;;;;;;;;;;;;5043970;28;19984;-78
2023/12/17 10:11:19;;;;;;;;;;;;;;;;;;5046601;28;20348;-78
2023/12/17 10:13:45;;;;;;;;;;;;;;;;;;5046400;28;19960;-78
2023/12/17 10:16:11;;;;;;;;;;;;;;;;;;5045230;28;20000;-78
2023/12/17 10:18:37;;;;;;;;;;;;;;;;;;5046251;28;19948;-78
2023/12/17 10:21:04;;;;;;;;;;;;;;;;;;5047598;28;20058;-78
2023/12/17 10:23:30;;;;;;;;;;;;;;;;;;5043268;28;20014;-78
2023/12/17 10:25:56;;;;;;;;;;;;;;;;;;5046695;28;20022;-78
2023/12/17 10:28:22;;;;;;;;;;;;;;;;;;5047755;28;19917;-78
2023/12/17 10:30:48;;;;;;;;;;;;;;;;;;5046200;28;19909;-77
2023/12/17 10:33:14;;;;;;;;;;;;;;;;;;5047401;28;21350;-77
2023/12/17 10:35:40;;;;;;;;;;;;;;;;;;5046181;28;19935;-78
2023/12/17 10:38:06;;;;;;;;;;;;;;;;;;5046911;28;20451;-78
2023/12/17 10:40:36;;;;;;;;;;;;;;;;;;5045964;28;19948;-77
2023/12/17 10:43:03;;;;;;;;;;;;;;;;;;5045882;28;19956;-78
2023/12/17 10:45:29;;;;;;;;;;;;;;;;;;5045536;28;19979;-77
2023/12/17 10:47:58;;;;;;;;;;;;;;;;;;5047589;28;19948;-78
2023/12/17 10:50:27;;;;;;;;;;;;;;;;;;5044390;28;19993;-78
2023/12/17 10:52:53;;;;;;;;;;;;;;;;;;5047799;28;20245;-74
2023/12/17 10:55:19;;;;;;;;;;;;;;;;;;5047448;28;19963;-73
2023/12/17 10:57:45;;;;;;;;;;;;;;;;;;5048279;28;19978;-73
2023/12/17 11:00:11;;;;;;;;;;;;;;;;;;5045680;28;19924;-72
2023/12/17 11:02:37;;;;;;;;;;;;;;;;;;5048204;28;20398;-73
2023/12/17 11:05:03;;;;;;;;;;;;;;;;;;5046981;28;19971;-74
2023/12/17 11:07:30;;;;;;;;;;;;;;;;;;5046738;28;20028;-74
2023/12/17 11:09:58;;;;;;;;;;;;;;;;;;5046739;28;20559;-73
2023/12/17 11:12:25;;;;;;;;;;;;;;;;;;5045895;28;20304;-78
2023/12/17 11:14:51;;;;;;;;;;;;;;;;;;5047010;28;19919;-74
2023/12/17 11:17:17;;;;;;;;;;;;;;;;;;5045845;28;20364;-74
2023/12/17 11:19:43;;;;;;;;;;;;;;;;;;5042612;28;20257;-75
2023/12/17 11:22:09;;;;;;;;;;;;;;;;;;5048589;28;19944;-74
2023/12/17 11:24:36;;;;;;;;;;;;;;;;;;5047291;28;20169;-75
2023/12/17 11:27:02;;;;;;;;;;;;;;;;;;5049751;28;20242;-73
2023/12/17 11:29:28;;;;;;;;;;;;;;;;;;5050529;28;19920;-75
2023/12/17 11:31:53;;;;;;;;;;;;;;;;;;5052193;28;19959;-74
2023/12/17 11:34:19;;;;;;;;;;;;;;;;;;5050972;28;19964;-75
2023/12/17 11:36:45;;;;;;;;;;;;;;;;;;5051860;28;20312;-77
2023/12/17 11:39:12;;;;;;;;;;;;;;;;;;5051924;28;20362;-75
2023/12/17 11:41:38;;;;;;;;;;;;;;;;;;5048206;28;20174;-74
2023/12/17 11:44:04;;;;;;;;;;;;;;;;;;5050299;28;20077;-75
2023/12/17 11:46:30;;;;;;;;;;;;;;;;;;5049158;28;20050;-74
2023/12/17 11:48:55;;;;;;;;;;;;;;;;;;5051584;28;20745;-75
2023/12/17 11:51:21;;;;;;;;;;;;;;;;;;5051366;28;20276;-74
2023/12/17 11:53:47;;;;;;;;;;;;;;;;;;5051424;28;20305;-76
2023/12/17 11:56:13;;;;;;;;;;;;;;;;;;5051824;28;20028;-75
2023/12/17 11:58:39;;;;;;;;;;;;;;;;;;5050404;28;19993;-74
2023/12/17 12:01:05;;;;;;;;;;;;;;;;;;5051138;28;19917;-75
2023/12/17 12:03:31;;;;;;;;;;;;;;;;;;5051469;28;20339;-76
2023/12/17 12:05:58;;;;;;;;;;;;;;;;;;5051034;28;20388;-75
2023/12/17 12:08:24;;;;;;;;;;;;;;;;;;5051663;28;20031;-74
2023/12/17 12:10:51;;;;;;;;;;;;;;;;;;5050900;28;19999;-74
2023/12/17 12:13:17;;;;;;;;;;;;;;;;;;5051475;28;19913;-75
2023/12/17 12:15:43;;;;;;;;;;;;;;;;;;5050474;28;19993;-75
2023/12/17 12:18:09;;;;;;;;;;;;;;;;;;5051924;28;20279;-75
2023/12/17 12:20:37;;;;;;;;;;;;;;;;;;5051024;28;20368;-75
2023/12/17 12:23:03;;;;;;;;;;;;;;;;;;5031355;28;19924;-74
2023/12/17 12:25:29;;;;;;;;;;;;;;;;;;5042665;28;19941;-74
2023/12/17 12:27:54;;;;;;;;;;;;;;;;;;5051454;28;19948;-75
2023/12/17 12:30:20;;;;;;;;;;;;;;;;;;5050267;28;20006;-74
2023/12/17 12:32:46;;;;;;;;;;;;;;;;;;5050440;28;19940;-74
2023/12/17 12:35:12;;;;;;;;;;;;;;;;;;5050426;28;19967;-75
2023/12/17 12:37:38;;;;;;;;;;;;;;;;;;5051215;28;19940;-75
2023/12/17 12:40:04;;;;;;;;;;;;;;;;;;5050612;28;19940;-74
2023/12/17 12:42:31;;;;;;;;;;;;;;;;;;5051494;28;19913;-75
2023/12/17 12:44:57;;;;;;;;;;;;;;;;;;5049632;28;19912;-75
2023/12/17 12:47:23;;;;;;;;;;;;;;;;;;5049651;28;20300;-73
2023/12/17 12:49:49;;;;;;;;;;;;;;;;;;5050280;28;19931;-75
2023/12/17 12:52:15;;;;;;;;;;;;;;;;;;5049476;28;19913;-76
2023/12/17 12:54:42;;;;;;;;;;;;;;;;;;5050235;28;20371;-76
2023/12/17 12:57:08;;;;;;;;;;;;;;;;;;5051029;28;20279;-76
2023/12/17 12:59:34;;;;;;;;;;;;;;;;;;5050049;28;19947;-75
2023/12/17 13:02:00;;;;;;;;;;;;;;;;;;5050783;28;19965;-74
2023/12/17 13:04:26;;;;;;;;;;;;;;;;;;5050902;28;19941;-75
2023/12/17 13:06:52;;;;;;;;;;;;;;;;;;5050002;28;20309;-75
2023/12/17 13:09:17;;;;;;;;;;;;;;;;;;5050636;28;20392;-74
2023/12/17 13:11:43;;;;;;;;;;;;;;;;;;5051380;28;19962;-80
2023/12/17 13:14:10;;;;;;;;;;;;;;;;;;5049917;28;19968;-80
2023/12/17 13:16:36;;;;;;;;;;;;;;;;;;5050372;28;19924;-80
2023/12/17 13:19:02;;;;;;;;;;;;;;;;;;5050966;28;19940;-81
2023/12/17 13:21:27;;;;;;;;;;;;;;;;;;5051259;28;20331;-81
2023/12/17 13:23:53;;;;;;;;;;;;;;;;;;5050778;28;20364;-81
2023/12/17 13:26:19;;;;;;;;;;;;;;;;;;5050483;28;20051;-80
2023/12/17 13:28:45;;;;;;;;;;;;;;;;;;5049365;28;20381;-81
2023/12/17 13:31:11;;;;;;;;;;;;;;;;;;5051195;28;19913;-81
2023/12/17 13:33:37;;;;;;;;;;;;;;;;;;5048893;28;19917;-81
2023/12/17 13:36:03;;;;;;;;;;;;;;;;;;5050287;28;19997;-81
2023/12/17 13:38:29;;;;;;;;;;;;;;;;;;5050398;28;19923;-82
2023/12/17 13:40:55;;;;;;;;;;;;;;;;;;5051076;28;19908;-81
2023/12/17 13:43:22;;;;;;;;;;;;;;;;;;5049081;28;19956;-81
2023/12/17 13:45:48;;;;;;;;;;;;;;;;;;5049059;28;20321;-80
2023/12/17 13:48:15;;;;;;;;;;;;;;;;;;5050013;28;20007;-81
2023/12/17 13:50:41;;;;;;;;;;;;;;;;;;5048160;28;19920;-80
2023/12/17 13:53:08;;;;;;;;;;;;;;;;;;5049842;28;19934;-80
2023/12/17 13:55:34;;;;;;;;;;;;;;;;;;5049592;28;19913;-79
2023/12/17 13:58:00;;;;;;;;;;;;;;;;;;5048251;28;20372;-80
2023/12/17 14:00:26;;;;;;;;;;;;;;;;;;5048037;28;19978;-81
2023/12/17 14:02:52;;;;;;;;;;;;;;;;;;5049620;28;20225;-80
2023/12/17 14:05:19;;;;;;;;;;;;;;;;;;5048722;28;19956;-80
2023/12/17 14:07:44;;;;;;;;;;;;;;;;;;5048609;28;20024;-80
2023/12/17 14:10:11;;;;;;;;;;;;;;;;;;5044552;28;20055;-80
2023/12/17 14:12:37;;;;;;;;;;;;;;;;;;5047277;28;20008;-79
2023/12/17 14:15:05;;;;;;;;;;;;;;;;;;5041934;28;20356;-80
2023/12/17 14:17:31;;;;;;;;;;;;;;;;;;5045702;28;19912;-78
2023/12/17 14:19:57;;;;;;;;;;;;;;;;;;5045226;28;20047;-78
2023/12/17 14:22:23;;;;;;;;;;;;;;;;;;5048144;28;19959;-79
2023/12/17 14:24:50;;;;;;;;;;;;;;;;;;5047178;28;20360;-78
2023/12/17 14:27:16;;;;;;;;;;;;;;;;;;5045591;28;19923;-78
2023/12/17 14:29:42;;;;;;;;;;;;;;;;;;5045160;28;19916;-79
2023/12/17 14:32:08;;;;;;;;;;;;;;;;;;5045256;28;20335;-79
2023/12/17 14:34:34;;;;;;;;;;;;;;;;;;5045334;28;19970;-80
2023/12/17 14:37:00;;;;;;;;;;;;;;;;;;5047382;28;19987;-78
2023/12/17 14:39:26;;;;;;;;;;;;;;;;;;5046493;28;19982;-78
2023/12/17 14:41:52;;;;;;;;;;;;;;;;;;5048130;28;20313;-79
2023/12/17 14:44:18;;;;;;;;;;;;;;;;;;5047848;28;20336;-78
2023/12/17 14:46:44;;;;;;;;;;;;;;;;;;5051320;28;19921;-81
2023/12/17 14:49:10;;;;;;;;;;;;;;;;;;5047519;28;19968;-79
2023/12/17 14:51:36;;;;;;;;;;;;;;;;;;5048366;28;19940;-78
2023/12/17 14:54:02;;;;;;;;;;;;;;;;;;5044387;28;19940;-79
2023/12/17 14:56:27;;;;;;;;;;;;;;;;;;5044687;28;20126;-79
2023/12/17 14:58:56;;;;;;;;;;;;;;;;;;5047043;28;20384;-78
2023/12/17 15:01:24;;;;;;;;;;;;;;;;;;5046799;28;19913;-78
2023/12/17 15:03:50;;;;;;;;;;;;;;;;;;5043571;28;19917;-79
2023/12/17 15:06:15;;;;;;;;;;;;;;;;;;5045015;28;19973;-78
2023/12/17 15:08:42;;;;;;;;;;;;;;;;;;5047821;28;20015;-79
2023/12/17 15:11:07;;;;;;;;;;;;;;;;;;5048295;28;19919;-79
2023/12/17 15:13:33;;;;;;;;;;;;;;;;;;5047498;28;20427;-78
2023/12/17 15:15:59;;;;;;;;;;;;;;;;;;5041868;28;19948;-79
2023/12/17 15:18:25;;;;;;;;;;;;;;;;;;5047856;28;20006;-79
2023/12/17 15:20:51;;;;;;;;;;;;;;;;;;5046968;28;19964;-79
2023/12/17 15:23:18;;;;;;;;;;;;;;;;;;5040208;28;20036;-79
2023/12/17 15:25:44;;;;;;;;;;;;;;;;;;5043460;28;20004;-79
2023/12/17 15:28:10;;;;;;;;;;;;;;;;;;5048417;28;20048;-79
2023/12/17 15:30:36;;;;;;;;;;;;;;;;;;5046639;28;19952;-79
2023/12/17 15:33:02;;;;;;;;;;;;;;;;;;5045911;28;19916;-79
2023/12/17 15:35:28;;;;;;;;;;;;;;;;;;5045718;28;19990;-80
2023/12/17 15:37:54;;;;;;;;;;;;;;;;;;5044816;28;20416;-79
2023/12/17 15:40:23;;;;;;;;;;;;;;;;;;5047521;28;20332;-79
2023/12/17 15:42:49;;;;;;;;;;;;;;;;;;5053505;28;20356;-79
2023/12/17 15:45:15;;;;;;;;;;;;;;;;;;5041940;28;19944;-79
2023/12/17 15:47:41;;;;;;;;;;;;;;;;;;5046285;28;19980;-79
2023/12/17 15:50:07;;;;;;;;;;;;;;;;;;5047101;28;20004;-79
2023/12/17 15:52:33;;;;;;;;;;;;;;;;;;5045635;28;20033;-80
2023/12/17 15:54:59;;;;;;;;;;;;;;;;;;5047225;28;19944;-79
2023/12/17 15:57:25;;;;;;;;;;;;;;;;;;5047142;28;20402;-79
2023/12/17 15:59:51;;;;;;;;;;;;;;;;;;5045833;28;19960;-80
2023/12/17 16:02:17;;;;;;;;;;;;;;;;;;5047165;28;20344;-79
2023/12/17 16:04:43;;;;;;;;;;;;;;;;;;5047239;28;20030;-79
2023/12/17 16:07:09;;;;;;;;;;;;;;;;;;5050086;28;20356;-80
2023/12/17 16:09:35;;;;;;;;;;;;;;;;;;5046003;28;20187;-79
2023/12/17 16:12:01;;;;;;;;;;;;;;;;;;5047476;28;20016;-79
2023/12/17 16:14:27;;;;;;;;;;;;;;;;;;5044835;28;19956;-78
2023/12/17 16:16:53;;;;;;;;;;;;;;;;;;5049761;28;19963;-78
2023/12/17 16:19:19;;;;;;;;;;;;;;;;;;5050918;28;20342;-78
2023/12/17 16:21:45;;;;;;;;;;;;;;;;;;5051020;28;19939;-79
2023/12/17 16:24:11;;;;;;;;;;;;;;;;;;5049977;28;19999;-79
2023/12/17 16:26:37;;;;;;;;;;;;;;;;;;5050540;28;19939;-79
2023/12/17 16:29:03;;;;;;;;;;;;;;;;;;5049331;28;19920;-83
2023/12/17 16:31:30;;;;;;;;;;;;;;;;;;5048675;28;19921;-79
2023/12/17 16:33:56;;;;;;;;;;;;;;;;;;5043655;28;19948;-79
2023/12/17 16:36:23;;;;;;;;;;;;;;;;;;5047460;28;19967;-77